createdAt,value
2023-04-26T00:01:42.362Z,100.00
2023-04-26T00:04:10.175Z,100.00
2023-04-26T00:06:39.428Z,100.00
2023-04-26T00:09:07.789Z,100.00
2023-04-26T00:11:35.318Z,100.00
2023-04-26T00:14:03.052Z,100.00
2023-04-26T00:16:30.679Z,100.00
2023-04-26T00:18:58.384Z,100.00
2023-04-26T00:21:26.639Z,100.00
2023-04-26T00:23:55.903Z,100.00
2023-04-26T00:26:23.471Z,100.00
2023-04-26T00:28:51.278Z,100.00
2023-04-26T00:31:19.472Z,100.00
2023-04-26T00:33:47.158Z,100.00
2023-04-26T00:36:15.375Z,100.00
2023-04-26T00:38:42.908Z,100.00
2023-04-26T00:41:11.783Z,100.00
2023-04-26T00:43:39.846Z,100.00
2023-04-26T00:46:08.364Z,100.00
2023-04-26T00:48:37.421Z,100.00
2023-04-26T00:51:05.458Z,100.00
2023-04-26T00:53:34.079Z,100.00
2023-04-26T00:56:02.466Z,100.00
2023-04-26T00:58:31.427Z,100.00
2023-04-26T01:00:59.897Z,100.00
2023-04-26T01:03:28.274Z,100.00
2023-04-26T01:05:56.076Z,100.00
2023-04-26T01:08:24.771Z,100.00
2023-04-26T01:10:54.009Z,100.00
2023-04-26T01:13:21.751Z,100.00
2023-04-26T01:15:50.877Z,100.00
2023-04-26T01:18:18.875Z,100.00
2023-04-26T01:20:47.169Z,100.00
2023-04-26T01:23:16.942Z,100.00
2023-04-26T01:25:44.517Z,100.00
2023-04-26T01:28:12.151Z,100.00
2023-04-26T01:34:39.348Z,100.00
2023-04-26T01:37:07.748Z,100.00
2023-04-26T01:39:37.494Z,100.00
2023-04-26T01:42:05.653Z,100.00
2023-04-26T01:44:33.298Z,100.00
2023-04-26T01:47:02.302Z,100.00
2023-04-26T01:49:30.290Z,100.00
2023-04-26T01:51:57.884Z,100.00
2023-04-26T01:54:25.638Z,100.00
2023-04-26T01:56:55.283Z,100.00
2023-04-26T01:59:22.840Z,100.00
2023-04-26T02:01:50.855Z,100.00
2023-04-26T02:04:18.505Z,100.00
2023-04-26T02:06:46.187Z,100.00
2023-04-26T02:09:13.750Z,100.00
2023-04-26T02:11:41.314Z,100.00
2023-04-26T02:14:10.276Z,100.00
2023-04-26T02:16:38.141Z,100.00
2023-04-26T02:19:10.747Z,100.00
2023-04-26T02:21:55.798Z,100.00
2023-04-26T02:24:23.879Z,100.00
2023-04-26T02:26:52.216Z,100.00
2023-04-26T02:29:29.778Z,100.00
2023-04-26T02:32:07.868Z,100.00
2023-04-26T02:34:35.800Z,100.00
2023-04-26T02:37:04.188Z,100.00
2023-04-26T02:39:32.230Z,100.00
2023-04-26T02:42:00.076Z,100.00
2023-04-26T02:44:31.990Z,100.00
2023-04-26T02:46:59.657Z,100.00
2023-04-26T02:49:27.312Z,100.00
2023-04-26T02:51:54.932Z,100.00
2023-04-26T02:54:22.583Z,100.00
2023-04-26T02:56:50.268Z,100.00
2023-04-26T02:59:17.864Z,100.00
2023-04-26T03:01:48.141Z,100.00
2023-04-26T03:04:16.071Z,100.00
2023-04-26T03:06:45.221Z,100.00
2023-04-26T03:09:12.838Z,100.00
2023-04-26T03:11:40.628Z,100.00
2023-04-26T03:14:08.164Z,100.00
2023-04-26T03:16:42.138Z,100.00
2023-04-26T03:19:11.362Z,100.00
2023-04-26T03:21:40.021Z,100.00
2023-04-26T03:24:08.073Z,100.00
2023-04-26T03:26:35.735Z,100.00
2023-04-26T03:29:04.196Z,100.00
2023-04-26T03:31:31.759Z,100.00
2023-04-26T03:34:00.117Z,100.00
2023-04-26T03:36:29.756Z,100.00
2023-04-26T03:38:57.778Z,100.00
2023-04-26T03:41:25.980Z,100.00
2023-04-26T03:43:55.355Z,100.00
2023-04-26T03:46:23.093Z,100.00
2023-04-26T03:48:51.381Z,100.00
2023-04-26T03:51:19.263Z,100.00
2023-04-26T03:53:48.857Z,100.00
2023-04-26T03:56:17.062Z,100.00
2023-04-26T03:58:44.855Z,100.00
2023-04-26T04:01:12.443Z,100.00
2023-04-26T04:03:41.572Z,100.00
2023-04-26T04:06:10.078Z,100.00
2023-04-26T04:08:38.104Z,100.00
2023-04-26T04:11:07.699Z,99.55
2023-04-26T04:13:37.974Z,99.08
2023-04-26T04:16:06.787Z,99.82
2023-04-26T04:18:34.405Z,99.06
2023-04-26T04:21:02.017Z,99.88
2023-04-26T04:23:29.589Z,99.48
2023-04-26T04:25:57.635Z,99.33
2023-04-26T04:28:27.120Z,98.37
2023-04-26T04:30:58.250Z,98.13
2023-04-26T04:33:28.494Z,98.79
2023-04-26T04:35:57.461Z,97.10
2023-04-26T04:38:25.413Z,98.34
2023-04-26T04:40:53.552Z,98.65
2023-04-26T04:43:21.468Z,98.84
2023-04-26T04:45:50.460Z,98.86
2023-04-26T04:48:20.452Z,98.25
2023-04-26T04:50:50.529Z,98.37
2023-04-26T04:53:18.281Z,98.46
2023-04-26T04:55:46.751Z,97.60
2023-04-26T04:58:17.000Z,98.27
2023-04-26T05:00:46.821Z,96.26
2023-04-26T05:03:21.916Z,96.97
2023-04-26T05:05:49.680Z,96.90
2023-04-26T05:08:17.300Z,95.24
2023-04-26T05:10:46.345Z,96.45
2023-04-26T05:13:13.838Z,96.77
2023-04-26T05:15:41.441Z,97.18
2023-04-26T05:18:09.108Z,97.39
2023-04-26T05:20:38.418Z,96.69
2023-04-26T05:23:06.625Z,96.61
2023-04-26T05:25:38.120Z,96.13
2023-04-26T05:28:23.192Z,97.42
2023-04-26T05:31:18.838Z,97.25
2023-04-26T05:33:58.964Z,96.89
2023-04-26T05:36:38.341Z,97.73
2023-04-26T05:39:07.145Z,97.46
2023-04-26T05:41:34.787Z,96.53
2023-04-26T05:44:02.386Z,98.20
2023-04-26T05:46:30.170Z,98.27
2023-04-26T05:48:57.832Z,98.04
2023-04-26T05:51:25.398Z,98.63
2023-04-26T05:53:55.718Z,97.89
2023-04-26T05:56:24.077Z,97.30
2023-04-26T05:58:52.819Z,97.18
2023-04-26T06:01:21.142Z,96.83
2023-04-26T06:03:48.980Z,95.67
2023-04-26T06:06:20.243Z,96.34
2023-04-26T06:08:49.283Z,94.97
2023-04-26T06:11:18.309Z,94.68
2023-04-26T06:13:45.893Z,94.05
2023-04-26T06:16:13.530Z,94.00
2023-04-26T06:18:41.106Z,94.53
2023-04-26T06:21:08.945Z,94.82
2023-04-26T06:23:37.370Z,94.77
2023-04-26T06:26:05.098Z,94.08
2023-04-26T06:28:34.035Z,92.55
2023-04-26T06:31:01.666Z,92.76
2023-04-26T06:33:30.033Z,88.98
2023-04-26T06:35:58.506Z,88.69
2023-04-26T06:38:26.169Z,88.70
2023-04-26T06:40:53.793Z,89.93
2023-04-26T06:43:21.472Z,87.10
2023-04-26T06:45:59.334Z,86.37
2023-04-26T06:48:27.302Z,84.24
2023-04-26T06:50:55.376Z,84.36
2023-04-26T06:53:23.442Z,85.29
2023-04-26T06:55:53.091Z,85.75
2023-04-26T06:58:21.152Z,86.26
2023-04-26T07:00:50.399Z,85.62
2023-04-26T07:03:19.574Z,85.83
2023-04-26T07:05:47.290Z,86.42
2023-04-26T07:08:14.908Z,86.39
2023-04-26T07:10:42.495Z,83.79
2023-04-26T07:13:10.135Z,82.43
2023-04-26T07:15:37.700Z,79.04
2023-04-26T07:18:05.312Z,80.20
2023-04-26T07:20:34.240Z,79.76
2023-04-26T07:23:01.777Z,79.94
2023-04-26T07:25:29.339Z,80.09
2023-04-26T07:27:56.935Z,78.96
2023-04-26T07:30:24.802Z,76.41
2023-04-26T07:32:53.352Z,75.89
2023-04-26T07:35:21.030Z,76.05
2023-04-26T07:37:49.908Z,78.23
2023-04-26T07:40:18.766Z,75.61
2023-04-26T07:42:46.411Z,76.68
2023-04-26T07:45:14.164Z,74.61
2023-04-26T07:47:41.715Z,73.43
2023-04-26T07:50:11.149Z,73.78
2023-04-26T07:52:38.877Z,71.97
2023-04-26T07:55:09.200Z,72.93
2023-04-26T07:57:37.652Z,74.02
2023-04-26T08:00:09.824Z,74.75
2023-04-26T08:02:45.104Z,74.18
2023-04-26T08:05:18.575Z,69.18
2023-04-26T08:07:46.378Z,68.50
2023-04-26T08:10:15.311Z,66.10
2023-04-26T08:12:42.892Z,68.52
2023-04-26T08:15:11.845Z,70.80
2023-04-26T08:17:39.447Z,69.80
2023-04-26T08:20:09.633Z,64.72
2023-04-26T08:22:37.571Z,64.39
2023-04-26T08:25:06.383Z,64.46
2023-04-26T08:27:35.860Z,63.06
2023-04-26T08:30:03.619Z,60.02
2023-04-26T08:32:31.258Z,59.82
2023-04-26T08:34:58.804Z,62.08
2023-04-26T08:37:27.545Z,62.96
2023-04-26T08:39:56.873Z,60.81
2023-04-26T08:42:28.194Z,60.11
2023-04-26T08:45:01.557Z,58.68
2023-04-26T08:47:36.411Z,59.07
2023-04-26T08:50:05.958Z,60.60
2023-04-26T08:52:33.823Z,57.06
2023-04-26T08:55:01.937Z,57.37
2023-04-26T08:57:33.632Z,56.48
2023-04-26T09:00:05.553Z,55.00
2023-04-26T09:02:33.739Z,55.01
2023-04-26T09:05:01.549Z,56.26
2023-04-26T09:07:33.776Z,51.55
2023-04-26T09:10:01.689Z,51.63
2023-04-26T09:12:29.492Z,54.05
2023-04-26T09:14:57.336Z,54.89
2023-04-26T09:17:34.249Z,52.29
2023-04-26T09:20:07.730Z,51.44
2023-04-26T09:22:37.412Z,53.57
2023-04-26T09:25:07.053Z,52.41
2023-04-26T09:27:36.614Z,48.53
2023-04-26T09:30:08.032Z,49.67
2023-04-26T09:32:48.070Z,52.38
2023-04-26T09:35:30.321Z,51.78
2023-04-26T09:38:05.642Z,50.11
2023-04-26T09:40:38.210Z,49.89
2023-04-26T09:43:07.909Z,49.17
2023-04-26T09:45:45.805Z,46.57
2023-04-26T09:48:16.843Z,48.15
2023-04-26T09:50:45.679Z,47.31
2023-04-26T09:53:25.494Z,47.00
2023-04-26T09:55:53.155Z,44.02
2023-04-26T09:58:20.675Z,46.70
2023-04-26T10:00:51.040Z,47.86
2023-04-26T10:03:21.313Z,46.33
2023-04-26T10:05:49.329Z,45.13
2023-04-26T10:08:17.123Z,44.45
2023-04-26T10:10:45.865Z,43.98
2023-04-26T10:13:14.465Z,44.94
2023-04-26T10:15:42.969Z,44.13
2023-04-26T10:18:10.628Z,43.48
2023-04-26T10:20:44.213Z,43.08
2023-04-26T10:23:20.010Z,42.39
2023-04-26T10:25:48.367Z,42.41
2023-04-26T10:28:17.377Z,41.75
2023-04-26T10:30:58.036Z,42.10
2023-04-26T10:33:27.259Z,40.20
2023-04-26T10:36:13.890Z,42.02
2023-04-26T10:38:44.107Z,43.07
2023-04-26T10:41:32.031Z,40.86
2023-04-26T10:44:01.661Z,40.26
2023-04-26T10:46:40.561Z,38.85
2023-04-26T10:49:16.216Z,39.34
2023-04-26T10:52:13.364Z,40.52
2023-04-26T10:54:52.226Z,38.19
2023-04-26T10:57:20.569Z,38.52
2023-04-26T11:00:21.925Z,40.94
2023-04-26T11:02:58.405Z,38.77
2023-04-26T11:05:38.560Z,38.99
2023-04-26T11:08:09.975Z,39.50
2023-04-26T11:10:40.877Z,38.56
2023-04-26T11:13:11.655Z,38.05
2023-04-26T11:15:39.353Z,38.74
2023-04-26T11:18:07.254Z,37.00
2023-04-26T11:20:35.544Z,35.11
2023-04-26T11:23:03.668Z,35.59
2023-04-26T11:25:32.719Z,37.07
2023-04-26T11:28:01.730Z,38.94
2023-04-26T11:30:31.574Z,38.79
2023-04-26T11:32:59.912Z,36.37
2023-04-26T11:35:29.688Z,36.16
2023-04-26T11:38:00.174Z,34.37
2023-04-26T11:40:33.963Z,33.78
2023-04-26T11:43:03.271Z,37.29
2023-04-26T11:45:32.909Z,35.14
2023-04-26T11:48:05.703Z,34.38
2023-04-26T11:50:35.154Z,36.30
2023-04-26T11:53:04.791Z,37.56
2023-04-26T11:55:35.805Z,35.15
2023-04-26T11:58:11.417Z,35.18
2023-04-26T12:00:39.398Z,35.63
2023-04-26T12:03:11.015Z,34.81
2023-04-26T12:05:43.677Z,35.03
2023-04-26T12:08:11.475Z,34.65
2023-04-26T12:10:40.393Z,36.97
2023-04-26T12:13:07.981Z,36.56
2023-04-26T12:15:35.698Z,36.37
2023-04-26T12:18:08.712Z,37.10
2023-04-26T12:20:37.892Z,36.06
2023-04-26T12:23:07.473Z,36.85
2023-04-26T12:25:36.820Z,37.39
2023-04-26T12:28:11.993Z,35.27
2023-04-26T12:30:41.014Z,32.74
2023-04-26T12:33:16.549Z,32.74
2023-04-26T12:35:45.512Z,32.64
2023-04-26T12:38:14.223Z,32.35
2023-04-26T12:40:46.631Z,31.55
2023-04-26T12:43:16.799Z,33.12
2023-04-26T12:45:47.143Z,31.50
2023-04-26T12:48:18.811Z,31.49
2023-04-26T12:50:46.917Z,31.36
2023-04-26T12:53:15.500Z,31.42
2023-04-26T12:55:43.257Z,32.50
2023-04-26T12:58:13.601Z,32.35
2023-04-26T13:00:44.590Z,31.39
2023-04-26T13:03:14.432Z,32.00
2023-04-26T13:05:42.597Z,32.49
2023-04-26T13:08:10.403Z,34.14
2023-04-26T13:10:38.553Z,36.00
2023-04-26T13:13:09.363Z,33.87
2023-04-26T13:15:38.322Z,33.29
2023-04-26T13:18:07.652Z,32.89
2023-04-26T13:20:36.127Z,32.69
2023-04-26T13:23:04.091Z,32.52
2023-04-26T13:25:31.922Z,32.38
2023-04-26T13:27:59.968Z,32.05
2023-04-26T13:30:27.669Z,29.09
2023-04-26T13:32:56.559Z,27.79
2023-04-26T13:35:26.504Z,29.36
2023-04-26T13:37:54.321Z,30.29
2023-04-26T13:40:22.735Z,30.31
2023-04-26T13:42:50.553Z,30.39
2023-04-26T13:45:19.420Z,28.74
2023-04-26T13:47:47.306Z,27.47
2023-04-26T13:50:15.170Z,27.78
2023-04-26T13:52:44.473Z,28.94
2023-04-26T13:55:12.491Z,27.53
2023-04-26T13:57:40.256Z,27.63
2023-04-26T14:00:09.552Z,26.70
2023-04-26T14:02:40.505Z,23.53
2023-04-26T14:05:12.212Z,23.70
2023-04-26T14:07:41.305Z,21.69
2023-04-26T14:10:12.210Z,20.81
2023-04-26T14:12:39.950Z,20.61
2023-04-26T14:15:08.778Z,21.14
2023-04-26T14:17:36.459Z,22.13
2023-04-26T14:20:05.305Z,22.64
2023-04-26T14:22:32.972Z,22.07
2023-04-26T14:25:00.705Z,18.96
2023-04-26T14:27:29.749Z,18.89
2023-04-26T14:29:57.485Z,17.41
2023-04-26T14:32:25.280Z,16.27
2023-04-26T14:34:52.962Z,16.07
2023-04-26T14:37:22.965Z,17.33
2023-04-26T14:39:51.545Z,17.50
2023-04-26T14:42:19.251Z,17.85
2023-04-26T14:44:48.326Z,18.21
2023-04-26T14:47:15.924Z,20.04
2023-04-26T14:49:43.502Z,19.21
2023-04-26T14:52:11.080Z,19.86
2023-04-26T14:54:39.321Z,20.73
2023-04-26T14:57:07.343Z,21.60
2023-04-26T14:59:34.965Z,22.92
2023-04-26T15:02:03.951Z,23.11
2023-04-26T15:04:31.761Z,22.50
2023-04-26T15:06:59.529Z,21.21
2023-04-26T15:09:28.989Z,20.76
2023-04-26T15:11:57.857Z,19.83
2023-04-26T15:14:25.514Z,21.75
2023-04-26T15:16:53.131Z,21.91
2023-04-26T15:19:21.992Z,21.60
2023-04-26T15:21:49.672Z,20.14
2023-04-26T15:24:17.426Z,21.10
2023-04-26T15:26:45.062Z,19.58
2023-04-26T15:29:12.652Z,18.04
2023-04-26T15:31:40.460Z,17.36
2023-04-26T15:34:08.846Z,17.17
2023-04-26T15:36:37.845Z,15.75
2023-04-26T15:39:05.453Z,16.13
2023-04-26T15:41:33.147Z,15.87
2023-04-26T15:44:00.773Z,16.11
2023-04-26T15:46:28.399Z,14.96
2023-04-26T15:48:56.763Z,13.54
2023-04-26T15:51:24.299Z,13.87
2023-04-26T15:53:53.169Z,13.79
2023-04-26T15:56:20.785Z,13.85
2023-04-26T15:58:48.414Z,14.15
2023-04-26T16:01:16.414Z,12.63
2023-04-26T16:03:47.470Z,12.50
2023-04-26T16:06:15.463Z,12.34
2023-04-26T16:08:43.233Z,12.14
2023-04-26T16:11:12.237Z,11.22
2023-04-26T16:13:39.826Z,11.60
2023-04-26T16:16:08.822Z,11.29
2023-04-26T16:18:36.594Z,11.85
2023-04-26T16:21:04.852Z,14.26
2023-04-26T16:23:32.511Z,16.14
2023-04-26T16:26:00.119Z,16.21
2023-04-26T16:28:29.090Z,18.04
2023-04-26T16:30:56.938Z,18.64
2023-04-26T16:33:25.353Z,19.62
2023-04-26T16:35:54.910Z,20.75
2023-04-26T16:38:22.962Z,21.57
2023-04-26T16:40:57.396Z,21.85
2023-04-26T16:43:25.685Z,23.53
2023-04-26T16:46:01.756Z,24.42
2023-04-26T16:48:31.729Z,24.00
2023-04-26T16:51:00.426Z,24.87
2023-04-26T16:53:28.182Z,26.19
2023-04-26T16:55:55.801Z,26.99
2023-04-26T16:58:23.526Z,25.83
2023-04-26T17:00:51.613Z,23.86
2023-04-26T17:03:21.272Z,23.57
2023-04-26T17:05:49.823Z,23.22
2023-04-26T17:08:18.641Z,23.00
2023-04-26T17:10:47.523Z,22.58
2023-04-26T17:13:15.712Z,23.07
2023-04-26T17:15:44.042Z,23.25
2023-04-26T17:18:11.830Z,23.83
2023-04-26T17:20:41.120Z,25.35
2023-04-26T17:23:08.896Z,25.84
2023-04-26T17:25:36.704Z,27.60
2023-04-26T17:28:04.415Z,28.25
2023-04-26T17:30:31.990Z,29.39
2023-04-26T17:32:59.606Z,29.69
2023-04-26T17:35:27.449Z,30.52
2023-04-26T17:37:56.372Z,30.15
2023-04-26T17:40:23.998Z,30.27
2023-04-26T17:42:51.632Z,29.28
2023-04-26T17:45:19.239Z,28.07
2023-04-26T17:47:46.846Z,27.60
2023-04-26T17:50:15.360Z,28.29
2023-04-26T17:52:43.000Z,27.98
2023-04-26T17:55:12.042Z,27.53
2023-04-26T17:57:40.004Z,28.13
2023-04-26T18:00:10.279Z,28.14
2023-04-26T18:02:38.439Z,29.61
2023-04-26T18:05:08.692Z,29.70
2023-04-26T18:07:36.399Z,30.79
2023-04-26T18:10:04.979Z,31.59
2023-04-26T18:12:33.936Z,32.89
2023-04-26T18:15:01.702Z,34.24
2023-04-26T18:17:29.328Z,36.64
2023-04-26T18:19:57.091Z,38.32
2023-04-26T18:22:24.668Z,40.32
2023-04-26T18:24:52.450Z,41.37
2023-04-26T18:27:20.592Z,41.97
2023-04-26T18:29:49.886Z,43.17
2023-04-26T18:32:17.446Z,45.31
2023-04-26T18:34:45.051Z,46.38
2023-04-26T18:37:12.645Z,47.28
2023-04-26T18:39:40.404Z,48.13
2023-04-26T18:42:08.062Z,49.19
2023-04-26T18:44:36.093Z,51.78
2023-04-26T18:47:05.616Z,52.83
2023-04-26T18:49:33.157Z,52.56
2023-04-26T18:52:01.556Z,53.19
2023-04-26T18:54:30.909Z,54.91
2023-04-26T18:56:59.149Z,55.90
2023-04-26T18:59:28.081Z,56.21
2023-04-26T19:01:55.626Z,56.68
2023-04-26T19:04:24.658Z,55.83
2023-04-26T19:06:52.448Z,56.51
2023-04-26T19:09:20.006Z,56.48
2023-04-26T19:11:47.565Z,57.15
2023-04-26T19:14:15.137Z,58.34
2023-04-26T19:16:42.677Z,58.82
2023-04-26T19:19:11.072Z,58.24
2023-04-26T19:21:40.075Z,58.29
2023-04-26T19:24:08.278Z,58.29
2023-04-26T19:26:37.476Z,58.76
2023-04-26T19:29:06.801Z,60.77
2023-04-26T19:31:34.733Z,61.76
2023-04-26T19:34:02.306Z,62.34
2023-04-26T19:36:29.916Z,62.44
2023-04-26T19:38:58.770Z,61.91
2023-04-26T19:41:26.412Z,62.13
2023-04-26T19:43:53.967Z,61.88
2023-04-26T19:46:21.809Z,61.86
2023-04-26T19:48:49.407Z,62.94
2023-04-26T19:51:17.529Z,63.85
2023-04-26T19:53:45.503Z,64.51
2023-04-26T19:56:14.375Z,64.47
2023-04-26T19:58:42.741Z,65.20
2023-04-26T20:01:10.380Z,65.60
2023-04-26T20:03:39.192Z,67.19
2023-04-26T20:06:07.155Z,67.11
2023-04-26T20:08:34.667Z,67.98
2023-04-26T20:11:03.454Z,68.25
2023-04-26T20:13:32.400Z,67.90
2023-04-26T20:15:59.991Z,68.06
2023-04-26T20:18:27.707Z,68.21
2023-04-26T20:20:55.307Z,67.88
2023-04-26T20:23:23.284Z,69.31
2023-04-26T20:25:51.682Z,68.55
2023-04-26T20:28:19.277Z,67.10
2023-04-26T20:30:48.205Z,68.40
2023-04-26T20:33:16.107Z,68.86
2023-04-26T20:35:43.891Z,69.11
2023-04-26T20:38:11.611Z,68.96
2023-04-26T20:40:39.179Z,69.02
2023-04-26T20:43:06.860Z,69.58
2023-04-26T20:45:34.673Z,69.52
2023-04-26T20:48:03.633Z,69.91
2023-04-26T20:50:31.333Z,70.44
2023-04-26T20:52:58.869Z,70.49
2023-04-26T20:55:26.724Z,70.71
2023-04-26T20:57:54.295Z,71.57
2023-04-26T21:00:22.010Z,71.83
2023-04-26T21:02:49.864Z,71.51
2023-04-26T21:05:18.790Z,72.01
2023-04-26T21:07:46.558Z,72.24
2023-04-26T21:10:14.084Z,72.60
2023-04-26T21:12:41.924Z,72.51
2023-04-26T21:15:10.392Z,73.17
2023-04-26T21:17:40.224Z,73.37
2023-04-26T21:20:08.612Z,73.01
2023-04-26T21:22:37.487Z,73.28
2023-04-26T21:25:05.642Z,73.01
2023-04-26T21:27:33.202Z,73.43
2023-04-26T21:30:00.785Z,72.85
2023-04-26T21:32:28.343Z,72.75
2023-04-26T21:34:55.878Z,73.99
2023-04-26T21:37:23.680Z,74.51
2023-04-26T21:39:52.557Z,74.15
2023-04-26T21:42:20.048Z,74.37
2023-04-26T21:44:47.591Z,75.17
2023-04-26T21:47:15.634Z,75.50
2023-04-26T21:49:43.258Z,75.95
2023-04-26T21:52:11.500Z,76.09
2023-04-26T21:54:39.235Z,75.97
2023-04-26T21:57:09.270Z,76.06
2023-04-26T21:59:37.178Z,76.59
2023-04-26T22:02:04.802Z,76.44
2023-04-26T22:04:32.705Z,76.48
2023-04-26T22:07:00.399Z,77.12
2023-04-26T22:09:28.083Z,77.14
2023-04-26T22:11:55.700Z,77.45
2023-04-26T22:14:24.698Z,77.68
2023-04-26T22:16:52.340Z,77.31
2023-04-26T22:19:19.921Z,77.36
2023-04-26T22:21:47.598Z,77.38
2023-04-26T22:24:15.168Z,77.67
2023-04-26T22:26:42.771Z,77.91
2023-04-26T22:29:10.507Z,77.86
2023-04-26T22:31:39.543Z,77.66
2023-04-26T22:34:07.148Z,77.91
2023-04-26T22:36:34.697Z,77.57
2023-04-26T22:39:02.223Z,77.83
2023-04-26T22:41:29.784Z,78.21
2023-04-26T22:43:57.349Z,77.81
2023-04-26T22:46:25.046Z,78.58
2023-04-26T22:48:54.185Z,78.37
2023-04-26T22:51:21.814Z,78.75
2023-04-26T22:53:49.352Z,79.43
2023-04-26T22:56:16.974Z,79.42
2023-04-26T22:58:44.488Z,79.30
2023-04-26T23:01:12.218Z,79.41
2023-04-26T23:03:39.898Z,78.85
2023-04-26T23:06:09.195Z,79.66
2023-04-26T23:08:36.747Z,79.75
2023-04-26T23:11:08.147Z,80.25
2023-04-26T23:13:37.001Z,80.12
2023-04-26T23:16:05.273Z,80.13
2023-04-26T23:18:32.844Z,80.66
2023-04-26T23:21:00.745Z,80.75
2023-04-26T23:23:29.870Z,80.67
2023-04-26T23:25:57.421Z,80.66
2023-04-26T23:28:24.927Z,81.35
2023-04-26T23:30:52.443Z,81.74
2023-04-26T23:33:19.944Z,82.19
2023-04-26T23:35:47.482Z,82.47
2023-04-26T23:38:14.985Z,82.51
2023-04-26T23:40:43.854Z,82.09
2023-04-26T23:43:12.985Z,83.02
2023-04-26T23:45:46.996Z,83.23
2023-04-26T23:48:14.880Z,82.78
2023-04-26T23:50:42.971Z,82.74
2023-04-26T23:53:11.315Z,82.69
2023-04-26T23:55:39.287Z,82.59
2023-04-26T23:58:08.180Z,82.93
